Time;durP1;ratioP1;P1;durP2;ratioP2;P2;SDS_P1;SDS_P2;PMS_P1;PMS_P2;Temp;Humidity;BMP_temperature;BMP_pressure;BME280_temperature;BME280_humidity;BME280_pressure;Samples;Min_cycle;Max_cycle;Signal;HPM_P1;HPM_P2
2023/06/13 00:03:00;;;;;;;3.80;3.30;;;;;;;20.80;53.43;96163.16;10342793;28;20660;-31
2023/06/13 00:08:00;;;;;;;4.43;3.58;;;;;;;20.77;53.57;96155.59;10339393;28;20073;-32
2023/06/13 00:13:01;;;;;;;4.77;3.20;;;;;;;20.76;53.51;96151.38;10340007;28;20598;-31
2023/06/13 00:18:01;;;;;;;4.15;3.22;;;;;;;20.74;53.28;96149.72;10327428;28;20398;-31
2023/06/13 00:23:04;;;;;;;3.65;3.30;;;;;;;20.73;53.25;96148.84;10331981;28;20573;-31
2023/06/13 00:28:04;;;;;;;4.35;3.30;;;;;;;20.73;53.19;96140.41;10343184;28;20037;-32
2023/06/13 00:33:06;;;;;;;4.32;3.78;;;;;;;20.73;53.06;96146.31;10341013;28;20525;-32
2023/06/13 00:38:07;;;;;;;4.13;3.13;;;;;;;20.85;51.96;96138.47;10340361;28;20463;-32
2023/06/13 00:43:07;;;;;;;4.05;3.63;;;;;;;20.85;52.71;96135.09;10335398;28;20121;-32
2023/06/13 00:48:08;;;;;;;3.77;3.37;;;;;;;20.76;53.04;96128.47;10344164;28;20042;-31
2023/06/13 00:53:19;;;;;;;3.47;3.17;;;;;;;20.74;52.80;96117.50;10343053;28;20041;-32
2023/06/13 00:58:19;;;;;;;5.05;3.78;;;;;;;20.69;52.77;96116.72;10334080;28;20065;-31
2023/06/13 01:03:20;;;;;;;4.10;3.20;;;;;;;20.69;52.99;96113.31;10357717;28;20555;-31
2023/06/13 01:08:23;;;;;;;3.80;3.42;;;;;;;20.65;52.90;96106.63;10333465;28;20490;-31
2023/06/13 01:13:29;;;;;;;3.70;3.40;;;;;;;20.63;52.68;96109.19;10346109;28;20062;-32
2023/06/13 01:18:37;;;;;;;5.85;3.55;;;;;;;20.65;52.90;96112.53;10335201;28;20547;-32
2023/06/13 01:23:38;;;;;;;3.70;3.15;;;;;;;20.74;52.05;96099.69;10331084;28;20034;-32
2023/06/13 01:28:43;;;;;;;4.28;3.83;;;;;;;20.83;51.72;96101.19;10346427;28;20022;-31
2023/06/13 01:33:43;;;;;;;3.90;3.55;;;;;;;20.73;52.46;96100.53;10331258;28;20088;-32
2023/06/13 01:38:44;;;;;;;3.90;3.50;;;;;;;20.65;52.59;96102.38;10341121;28;20026;-32
2023/06/13 01:43:46;;;;;;;3.92;3.50;;;;;;;20.63;52.53;96091.38;10336827;28;20037;-32
2023/06/13 01:48:55;;;;;;;3.60;3.30;;;;;;;20.62;52.70;96091.44;10340333;28;20037;-32
2023/06/13 01:54:01;;;;;;;5.43;3.38;;;;;;;20.58;52.46;96084.72;10345787;28;20297;-31
2023/06/13 01:59:10;;;;;;;4.18;3.78;;;;;;;20.58;52.17;96094.88;10343787;28;20482;-31
2023/06/13 02:04:10;;;;;;;4.25;3.70;;;;;;;20.57;52.43;96090.66;10327655;28;20045;-31
2023/06/13 02:09:11;;;;;;;3.80;3.40;;;;;;;20.60;52.10;96082.97;10344686;28;20030;-31
2023/06/13 02:14:11;;;;;;;6.13;3.33;;;;;;;20.73;51.50;96089.53;10344514;28;20048;-32
2023/06/13 02:19:13;;;;;;;3.83;3.43;;;;;;;20.68;51.90;96093.84;10330542;28;20037;-31
2023/06/13 02:24:14;;;;;;;3.55;3.08;;;;;;;20.61;52.30;96093.13;10329012;28;20034;-32
2023/06/13 02:29:15;;;;;;;4.90;2.95;;;;;;;20.57;51.99;96099.13;10341489;28;20026;-31
2023/06/13 02:34:15;;;;;;;4.70;3.70;;;;;;;20.54;51.96;96101.72;10345866;28;20021;-31
2023/06/13 02:39:16;;;;;;;4.22;3.83;;;;;;;20.53;51.87;96094.97;10341608;28;20530;-31
2023/06/13 02:44:16;;;;;;;4.30;3.80;;;;;;;20.54;51.88;96095.81;10325336;28;20037;-32
2023/06/13 02:49:16;;;;;;;4.37;3.97;;;;;;;20.52;51.75;96100.06;10325747;28;20218;-31
2023/06/13 02:54:17;;;;;;;4.37;3.93;;;;;;;20.51;51.62;96104.34;10332341;28;20030;-31
2023/06/13 02:59:19;;;;;;;4.78;4.28;;;;;;;20.66;51.10;96109.16;10326177;28;20022;-32
2023/06/13 03:04:20;;;;;;;4.65;4.10;;;;;;;20.69;50.73;96109.09;10328508;28;20037;-31
2023/06/13 03:09:21;;;;;;;4.60;4.13;;;;;;;20.60;51.37;96111.81;10340567;28;20041;-32
2023/06/13 03:14:22;;;;;;;4.53;3.83;;;;;;;20.55;51.58;96113.56;10342233;28;20030;-31
2023/06/13 03:19:23;;;;;;;4.30;3.90;;;;;;;20.52;51.26;96116.19;10325701;28;20031;-32
2023/06/13 03:24:24;;;;;;;5.22;4.38;;;;;;;20.48;51.67;96114.53;10326231;28;20544;-31
2023/06/13 03:29:25;;;;;;;4.30;3.90;;;;;;;20.49;51.34;96126.44;10321230;28;20033;-31
2023/06/13 03:34:28;;;;;;;5.40;3.80;;;;;;;20.47;51.60;96128.13;10320773;28;20061;-32
2023/06/13 03:39:28;;;;;;;5.30;4.22;;;;;;;20.47;51.63;96132.41;10332082;28;20081;-33
2023/06/13 03:44:30;;;;;;;4.97;3.83;;;;;;;20.31;46.45;96125.03;10316674;28;20457;-32
2023/06/13 03:49:31;;;;;;;5.70;4.20;;;;;;;20.61;44.57;96136.38;10341611;28;20033;-31
2023/06/13 03:54:31;;;;;;;4.70;4.17;;;;;;;20.45;43.47;96139.22;10360890;28;20026;-31
2023/06/13 03:59:35;;;;;;;4.87;4.07;;;;;;;20.35;43.70;96137.66;10333321;28;20026;-31
2023/06/13 04:04:36;;;;;;;4.97;3.58;;;;;;;20.28;42.71;96136.09;10346013;28;20034;-31
2023/06/13 04:09:37;;;;;;;4.78;4.07;;;;;;;20.20;43.52;96132.00;10344117;28;20656;-30
2023/06/13 04:14:37;;;;;;;4.78;4.07;;;;;;;20.20;43.70;96134.53;10342597;28;20033;-31
2023/06/13 04:19:39;;;;;;;5.70;4.40;;;;;;;20.15;43.34;96133.75;10356465;28;20413;-32
2023/06/13 04:24:39;;;;;;;5.95;4.35;;;;;;;20.11;43.31;96132.16;10330300;28;20561;-31
2023/06/13 04:29:41;;;;;;;7.45;3.75;;;;;;;20.05;43.63;96137.31;10337050;28;20084;-31
2023/06/13 04:34:44;;;;;;;4.90;3.80;;;;;;;20.08;43.94;96137.28;10342078;28;20034;-31
2023/06/13 04:39:44;;;;;;;4.40;3.85;;;;;;;20.13;44.18;96143.13;10349563;28;20030;-31
2023/06/13 04:44:45;;;;;;;4.37;3.40;;;;;;;20.19;42.66;96155.75;10341800;28;20260;-32
2023/06/13 04:49:46;;;;;;;4.35;3.35;;;;;;;20.24;43.00;96149.72;10331694;28;20045;-31
2023/06/13 04:54:46;;;;;;;6.00;3.87;;;;;;;20.31;43.12;96150.47;10342288;28;20030;-32
2023/06/13 04:59:47;;;;;;;5.10;3.40;;;;;;;20.34;46.32;96146.16;10347794;28;20284;-31
2023/06/13 05:04:47;;;;;;;4.85;3.42;;;;;;;20.42;47.81;96140.97;10344578;28;20406;-31
2023/06/13 05:09:48;;;;;;;5.63;3.25;;;;;;;20.39;48.48;96137.59;10354486;28;20034;-31
2023/06/13 05:14:49;;;;;;;5.07;3.33;;;;;;;20.43;49.06;96136.69;10339886;28;20049;-30
2023/06/13 05:19:50;;;;;;;9.73;4.15;;;;;;;20.44;49.31;96145.13;10347344;28;20026;-31
2023/06/13 05:24:50;;;;;;;10.90;3.25;;;;;;;20.59;47.39;96138.09;10365715;28;20493;-31
2023/06/13 05:29:51;;;;;;;8.80;2.93;;;;;;;20.58;43.65;96144.06;10331004;28;20092;-31
2023/06/13 05:34:51;;;;;;;5.32;3.53;;;;;;;20.56;47.86;96138.13;10341172;28;20030;-31
2023/06/13 05:39:52;;;;;;;4.63;3.10;;;;;;;20.51;49.17;96139.94;10329897;28;20037;-31
2023/06/13 05:44:52;;;;;;;5.17;3.23;;;;;;;20.50;49.54;96143.34;10342905;28;20033;-32
2023/06/13 05:49:52;;;;;;;5.63;3.57;;;;;;;20.49;49.86;96136.59;10348216;28;20037;-31
2023/06/13 05:54:53;;;;;;;3.00;2.70;;;;;;;20.48;49.85;96137.44;10337778;28;20044;-31
2023/06/13 05:59:54;;;;;;;3.70;3.35;;;;;;;20.45;50.24;96129.88;10333562;28;20036;-31
2023/06/13 06:04:56;;;;;;;3.55;2.67;;;;;;;20.47;50.33;96117.13;10337468;28;20034;-31
2023/06/13 06:09:57;;;;;;;5.15;3.38;;;;;;;20.55;49.12;96112.75;10345047;28;20033;-32
2023/06/13 06:14:57;;;;;;;4.05;2.95;;;;;;;20.73;48.30;96115.78;10337735;28;20046;-31
2023/06/13 06:19:58;;;;;;;3.53;3.23;;;;;;;20.65;49.66;96120.16;10345301;28;20034;-31
2023/06/13 06:24:58;;;;;;;3.20;2.90;;;;;;;20.59;50.25;96122.00;10335997;28;20034;-31
2023/06/13 06:29:58;;;;;;;4.07;2.80;;;;;;;20.52;50.68;96111.09;10352608;28;20034;-32
2023/06/13 06:34:59;;;;;;;3.20;2.90;;;;;;;20.52;50.88;96106.00;10328385;28;20097;-31
2023/06/13 06:40:00;;;;;;;3.53;2.90;;;;;;;20.52;50.83;96095.00;10352767;28;20033;-31
2023/06/13 06:45:00;;;;;;;4.50;2.67;;;;;;;20.48;51.08;96088.28;10344767;28;20031;-31
2023/06/13 06:50:03;;;;;;;3.13;2.75;;;;;;;20.49;50.90;96090.81;10368462;28;20034;-31
2023/06/13 06:55:03;;;;;;;3.80;3.17;;;;;;;20.49;51.15;96084.88;10358814;28;20084;-31
2023/06/13 07:00:05;;;;;;;3.30;2.83;;;;;;;20.68;50.14;96093.84;10344190;28;20025;-33
2023/06/13 07:05:06;;;;;;;2.92;2.50;;;;;;;20.78;49.72;96093.66;10344436;28;20026;-32
2023/06/13 07:10:07;;;;;;;3.05;2.70;;;;;;;20.74;50.13;96076.78;10367723;28;20049;-31
2023/06/13 07:15:07;;;;;;;2.70;2.50;;;;;;;20.65;50.57;96087.09;10356657;28;20510;-31
2023/06/13 07:20:08;;;;;;;3.42;3.13;;;;;;;20.59;50.98;96082.16;10366436;28;20034;-31
2023/06/13 07:25:09;;;;;;;3.20;2.60;;;;;;;20.60;51.00;96082.97;10375542;28;20045;-31
2023/06/13 07:30:10;;;;;;;2.50;2.30;;;;;;;20.58;51.02;96079.63;10350071;28;20058;-30
2023/06/13 07:35:12;;;;;;;3.00;2.70;;;;;;;20.59;51.44;96076.22;10371131;28;20482;-30
2023/06/13 07:40:13;;;;;;;3.05;2.75;;;;;;;20.57;51.42;96073.69;10346295;28;20445;-31
2023/06/13 07:45:14;;;;;;;2.55;2.33;;;;;;;20.56;51.66;96069.47;10351092;28;20044;-31
2023/06/13 07:50:17;;;;;;;3.08;2.78;;;;;;;20.77;50.84;96056.38;10345206;28;20137;-30
2023/06/13 07:55:17;;;;;;;3.00;2.45;;;;;;;20.77;50.92;96058.91;10372288;28;20073;-31
2023/06/13 08:00:18;;;;;;;2.47;2.27;;;;;;;20.67;51.15;96049.78;10381970;28;20579;-32
2023/06/13 08:05:19;;;;;;;2.78;2.47;;;;;;;20.66;51.39;96049.81;10353388;28;20316;-31
2023/06/13 08:10:20;;;;;;;2.47;2.28;;;;;;;20.66;51.40;96043.03;10348675;28;20037;-32
2023/06/13 08:15:20;;;;;;;2.45;2.25;;;;;;;20.63;51.45;96035.44;10356961;28;20394;-31
2023/06/13 08:20:20;;;;;;;2.83;2.20;;;;;;;20.61;51.79;96028.69;10343636;28;20521;-31
2023/06/13 08:25:21;;;;;;;2.97;2.57;;;;;;;20.62;51.90;96030.41;10356582;28;20515;-31
2023/06/13 08:30:21;;;;;;;2.40;2.20;;;;;;;20.62;51.92;96031.22;10362933;28;20030;-31
2023/06/13 08:35:22;;;;;;;3.57;2.43;;;;;;;20.71;51.72;96028.50;10350684;28;20044;-31
2023/06/13 08:40:22;;;;;;;2.40;2.20;;;;;;;20.87;51.36;96034.16;10354592;28;20528;-31
2023/06/13 08:45:23;;;;;;;2.80;2.50;;;;;;;20.81;51.49;96027.44;10364258;28;20396;-31
2023/06/13 08:50:24;;;;;;;2.35;2.13;;;;;;;20.71;51.88;96035.31;10381701;28;20036;-31
2023/06/13 08:55:27;;;;;;;2.70;2.30;;;;;;;20.69;51.82;96035.31;10354454;28;20034;-32
2023/06/13 09:00:33;;;;;;;2.60;2.40;;;;;;;20.65;52.01;96033.69;10348658;28;20437;-31
2023/06/13 09:05:33;;;;;;;2.38;1.88;;;;;;;20.62;52.01;96038.84;10357827;28;20034;-31
2023/06/13 09:10:35;;;;;;;3.15;2.42;;;;;;;20.65;52.08;96031.16;10367458;28;20045;-31
2023/06/13 09:15:36;;;;;;;2.17;1.95;;;;;;;20.63;52.36;96037.16;10372999;28;20033;-31
2023/06/13 09:20:37;;;;;;;2.58;2.10;;;;;;;20.61;52.53;96031.25;10388451;28;20044;-31
2023/06/13 09:25:38;;;;;;;2.20;1.90;;;;;;;20.76;52.06;96029.25;10363630;28;20433;-36
2023/06/13 09:30:43;;;;;;;2.03;1.83;;;;;;;20.86;51.77;96030.78;10359195;28;20624;-31
2023/06/13 09:35:43;;;;;;;2.22;2.03;;;;;;;20.73;52.07;96024.22;10346467;28;20030;-32
2023/06/13 09:40:47;;;;;;;2.33;2.10;;;;;;;20.69;52.20;96026.84;10355789;28;20094;-32
2023/06/13 09:45:48;;;;;;;2.45;2.25;;;;;;;20.70;52.01;96026.81;10362380;28;20038;-31
2023/06/13 09:50:50;;;;;;;2.75;2.15;;;;;;;20.68;52.30;96023.47;10367990;28;20123;-32
2023/06/13 09:55:50;;;;;;;2.50;2.30;;;;;;;20.63;52.62;96020.19;10352929;28;20029;-30
2023/06/13 10:00:57;;;;;;;2.33;2.13;;;;;;;20.66;52.67;96014.19;10333071;28;20030;-30
2023/06/13 10:05:58;;;;;;;2.85;2.45;;;;;;;20.70;52.55;96021.72;10367600;28;20668;-31
2023/06/13 10:11:08;;;;;;;2.63;2.42;;;;;;;20.73;52.55;96011.50;10361620;28;20497;-31
2023/06/13 10:16:12;;;;;;;2.28;2.08;;;;;;;20.89;52.29;96010.34;10352891;28;20041;-31
2023/06/13 10:21:13;;;;;;;2.55;2.15;;;;;;;20.95;52.05;96007.69;10374760;28;20489;-30
2023/06/13 10:26:39;;;;;;;2.45;2.25;;;;;;;20.94;52.40;96010.25;10343490;28;20042;-37
2023/06/13 10:32:15;;;;;;;3.67;1.88;;;;;;;20.92;52.63;96009.44;10377579;28;20494;-31
2023/06/13 10:37:39;;;;;;;4.60;2.63;;;;;;;20.88;52.75;96008.66;10348708;28;20030;-32
2023/06/13 10:42:48;;;;;;;2.00;1.80;;;;;;;20.88;52.89;96010.41;10356412;28;20041;-31
2023/06/13 10:47:48;;;;;;;3.53;2.60;;;;;;;20.78;53.16;96002.06;10355852;28;20026;-32
2023/06/13 10:52:52;;;;;;;15.93;2.90;;;;;;;20.76;52.90;95998.72;10356743;28;20501;-31
2023/06/13 10:57:56;;;;;;;35.00;5.43;;;;;;;20.74;53.00;95995.38;10356072;28;20033;-31
2023/06/13 11:03:13;;;;;;;71.03;8.20;;;;;;;20.96;53.86;95989.00;10369079;28;20040;-31
2023/06/13 11:08:14;;;;;;;;;;;;;;;21.05;53.22;95981.16;10344533;28;20039;-31
2023/06/13 11:13:18;;;;;;;32.17;4.35;;;;;;;20.99;53.07;95981.28;10373815;28;20324;-31
2023/06/13 11:18:18;;;;;;;57.53;6.07;;;;;;;20.93;53.23;95981.44;10334932;28;20561;-31
2023/06/13 11:23:23;;;;;;;43.43;6.37;;;;;;;20.91;53.28;95979.78;10358917;28;20054;-31
2023/06/13 11:28:24;;;;;;;40.97;6.28;;;;;;;20.89;53.60;95969.63;10358050;28;20509;-31
2023/06/13 11:33:27;;;;;;;35.42;5.85;;;;;;;20.92;53.39;95967.03;10350530;28;20040;-32
2023/06/13 11:38:37;;;;;;;33.17;6.20;;;;;;;20.87;53.53;95961.19;10361689;28;20531;-31
2023/06/13 11:43:38;;;;;;;20.05;3.53;;;;;;;20.88;53.57;95952.69;10386669;28;20029;-31
2023/06/13 11:48:38;;;;;;;20.15;4.05;;;;;;;20.91;53.55;95955.19;10358894;28;20723;-31
2023/06/13 11:53:59;;;;;;;22.13;5.13;;;;;;;21.06;53.24;95949.75;10343124;28;20038;-31
2023/06/13 11:59:00;;;;;;;7.82;3.65;;;;;;;21.14;53.05;95969.94;10364677;28;20489;-31
2023/06/13 12:04:02;;;;;;;16.55;4.25;;;;;;;21.04;53.39;95948.94;10372274;28;20122;-31
2023/06/13 12:09:05;;;;;;;9.82;3.90;;;;;;;21.01;53.57;95949.03;10354696;28;20057;-31
2023/06/13 12:14:06;;;;;;;10.60;3.50;;;;;;;20.96;53.78;95945.72;10339672;28;20057;-31
2023/06/13 12:19:09;;;;;;;10.55;3.80;;;;;;;20.97;53.86;95936.41;10334108;28;20040;-32
2023/06/13 12:24:09;;;;;;;14.02;4.47;;;;;;;20.97;53.85;95942.31;10366306;28;20044;-31
2023/06/13 12:29:16;;;;;;;21.33;4.18;;;;;;;21.00;54.75;95942.25;10333302;28;20415;-31
2023/06/13 12:34:29;;;;;;;13.07;4.25;;;;;;;21.01;54.16;95936.31;10355259;28;20058;-31
2023/06/13 12:39:30;;;;;;;19.83;4.20;;;;;;;21.05;54.76;95937.88;10341258;28;20096;-31
2023/06/13 12:44:33;;;;;;;9.77;3.63;;;;;;;21.16;54.30;95930.88;10347351;28;20628;-30
2023/06/13 12:49:36;;;;;;;13.65;3.55;;;;;;;21.19;54.20;95933.34;10339750;28;20039;-31
2023/06/13 12:54:36;;;;;;;11.68;4.28;;;;;;;21.11;54.25;95921.63;10334348;28;20093;-31
2023/06/13 12:59:38;;;;;;;6.70;3.33;;;;;;;21.04;54.17;95915.88;10342405;28;20030;-32
2023/06/13 13:04:40;;;;;;;6.45;3.05;;;;;;;21.03;54.49;95916.75;10342090;28;20409;-31
2023/06/13 13:09:43;;;;;;;8.32;3.00;;;;;;;21.04;54.64;95920.94;10352173;28;20430;-31
2023/06/13 13:14:43;;;;;;;7.30;2.88;;;;;;;21.06;55.08;95913.28;10347793;28;20030;-31
2023/06/13 13:19:45;;;;;;;6.60;3.00;;;;;;;21.01;54.64;95903.22;10340477;28;20026;-31
2023/06/13 13:24:48;;;;;;;8.52;2.83;;;;;;;21.06;55.03;95890.38;10342242;28;20052;-31
2023/06/13 13:29:48;;;;;;;7.43;3.22;;;;;;;21.14;55.22;95884.22;10346185;28;20387;-31
2023/06/13 13:34:49;;;;;;;9.40;3.37;;;;;;;21.27;55.15;95885.63;10341433;28;20041;-31
2023/06/13 13:39:49;;;;;;;7.40;2.65;;;;;;;21.22;54.49;95874.69;10368064;28;20042;-31
2023/06/13 13:44:49;;;;;;;11.37;2.73;;;;;;;21.12;54.59;95869.84;10337620;28;20128;-31
2023/06/13 13:49:50;;;;;;;7.70;3.77;;;;;;;21.12;54.63;95880.03;10335856;28;20398;-32
2023/06/13 13:54:51;;;;;;;7.97;3.23;;;;;;;21.09;54.86;95873.34;10356550;28;20030;-31
2023/06/13 13:59:51;;;;;;;5.55;2.60;;;;;;;21.08;54.99;95869.13;10349792;28;20429;-31
2023/06/13 14:04:51;;;;;;;5.88;2.80;;;;;;;21.11;55.34;95871.59;10364681;28;20089;-31
2023/06/13 14:09:52;;;;;;;5.60;2.70;;;;;;;21.13;55.54;95859.66;10349476;28;20409;-31
2023/06/13 14:14:52;;;;;;;4.97;2.47;;;;;;;21.03;54.71;95868.38;10349528;28;20470;-31
2023/06/13 14:19:53;;;;;;;3.53;3.03;;;;;;;21.18;55.26;95865.47;10345552;28;20387;-31
2023/06/13 14:24:53;;;;;;;4.40;2.45;;;;;;;21.27;54.97;95865.25;10348553;28;20125;-32
2023/06/13 14:29:53;;;;;;;2.87;2.30;;;;;;;21.24;54.69;95859.41;10337100;28;20025;-32
2023/06/13 14:34:56;;;;;;;6.30;2.67;;;;;;;21.18;54.26;95860.38;10332814;28;20372;-31
2023/06/13 14:39:56;;;;;;;4.45;2.50;;;;;;;21.14;54.79;95858.78;10348783;28;20025;-31
2023/06/13 14:44:57;;;;;;;5.73;2.87;;;;;;;21.14;54.63;95843.50;10331247;28;20030;-30
2023/06/13 14:49:57;;;;;;;3.30;2.30;;;;;;;21.06;54.90;95853.03;10341478;28;20289;-31
2023/06/13 14:54:57;;;;;;;3.97;2.60;;;;;;;21.00;55.10;95855.75;10352392;28;20030;-31
2023/06/13 14:59:58;;;;;;;2.80;2.40;;;;;;;20.95;55.05;95847.38;10332378;28;20030;-32
2023/06/13 15:04:58;;;;;;;5.17;2.30;;;;;;;20.93;55.06;95849.13;10332119;28;20033;-31
2023/06/13 15:09:59;;;;;;;4.60;2.40;;;;;;;21.12;55.00;95845.25;10334482;28;20038;-32
2023/06/13 15:14:59;;;;;;;6.03;2.38;;;;;;;21.20;54.54;95845.91;10351974;28;20050;-30
2023/06/13 15:19:59;;;;;;;9.10;3.13;;;;;;;21.09;55.99;95839.41;10343880;28;20099;-32
2023/06/13 15:25:00;;;;;;;8.87;2.90;;;;;;;21.02;56.18;95841.25;10349764;28;20405;-31
2023/06/13 15:30:00;;;;;;;7.87;2.93;;;;;;;20.97;56.17;95835.44;10345489;28;20035;-31
2023/06/13 15:35:01;;;;;;;8.03;2.73;;;;;;;20.95;56.38;95842.28;10342859;28;20285;-31
2023/06/13 15:40:03;;;;;;;5.90;2.30;;;;;;;20.95;56.04;95832.09;10344848;28;20057;-31
2023/06/13 15:45:04;;;;;;;5.28;2.22;;;;;;;20.94;56.20;95834.66;10359014;28;20120;-31
2023/06/13 15:50:04;;;;;;;3.75;2.35;;;;;;;20.94;55.99;95840.59;10341847;28;20077;-31
2023/06/13 15:55:05;;;;;;;3.67;2.40;;;;;;;21.07;56.09;95841.97;10337302;28;20700;-32
2023/06/13 16:00:06;;;;;;;6.03;2.83;;;;;;;21.20;55.90;95840.81;10342655;28;20041;-31
2023/06/13 16:05:12;;;;;;;5.50;2.33;;;;;;;21.15;55.73;95840.06;10333479;28;20034;-31
2023/06/13 16:10:12;;;;;;;5.03;2.30;;;;;;;21.04;56.06;95836.97;10359943;28;20033;-31
2023/06/13 16:15:13;;;;;;;6.07;2.50;;;;;;;21.08;56.19;95842.81;10350703;28;20773;-31
2023/06/13 16:20:13;;;;;;;2.63;2.33;;;;;;;21.08;56.36;95843.66;10341934;28;20065;-32
2023/06/13 16:25:16;;;;;;;6.83;2.60;;;;;;;21.10;57.56;95831.75;10341363;28;20088;-31
2023/06/13 16:30:16;;;;;;;7.13;2.92;;;;;;;21.10;56.31;95841.91;10341191;28;20385;-31
2023/06/13 16:35:17;;;;;;;7.47;2.70;;;;;;;21.08;55.05;95843.66;10332799;28;20125;-31
2023/06/13 16:40:17;;;;;;;7.18;2.67;;;;;;;21.05;55.45;95848.00;10363771;28;20042;-31
2023/06/13 16:45:17;;;;;;;7.83;2.63;;;;;;;21.20;54.95;95847.59;10346814;28;20034;-32
2023/06/13 16:50:18;;;;;;;4.93;2.20;;;;;;;21.27;54.96;95849.97;10356235;28;20307;-31
2023/06/13 16:55:18;;;;;;;2.60;2.08;;;;;;;21.18;55.21;95859.53;10350043;28;20840;-31
2023/06/13 17:00:19;;;;;;;5.30;2.80;;;;;;;21.13;55.65;95862.19;10342025;28;20033;-31
2023/06/13 17:05:19;;;;;;;5.28;2.95;;;;;;;21.11;55.77;95860.56;10364383;28;20879;-31
2023/06/13 17:10:20;;;;;;;4.63;3.07;;;;;;;21.06;55.86;95865.75;10339475;28;20038;-31
2023/06/13 17:15:20;;;;;;;4.13;2.20;;;;;;;20.99;55.65;95869.31;10358386;28;20057;-31
2023/06/13 17:20:21;;;;;;;4.93;2.27;;;;;;;20.99;56.23;95876.13;10339466;28;20042;-31
2023/06/13 17:25:21;;;;;;;3.65;2.20;;;;;;;20.97;55.94;95876.16;10339157;28;20034;-31
2023/06/13 17:30:22;;;;;;;4.07;2.20;;;;;;;21.06;56.29;95885.28;10357015;28;20030;-33
2023/06/13 17:35:22;;;;;;;2.55;2.33;;;;;;;21.23;55.59;95893.38;10340325;28;20038;-31
2023/06/13 17:40:35;;;;;;;2.33;1.92;;;;;;;21.23;55.52;95894.19;10340230;28;20080;-32
2023/06/13 17:45:36;;;;;;;3.30;2.30;;;;;;;21.17;55.60;95899.44;10346613;28;20092;-31
2023/06/13 17:50:37;;;;;;;4.23;2.20;;;;;;;21.17;56.41;95906.22;10346335;28;20038;-32
2023/06/13 17:55:37;;;;;;;3.33;2.83;;;;;;;21.10;56.08;95918.28;10345697;28;20034;-31
2023/06/13 18:00:38;;;;;;;4.03;2.60;;;;;;;21.09;56.10;95916.59;10329450;28;20987;-31
2023/06/13 18:05:38;;;;;;;6.13;2.50;;;;;;;21.05;56.25;95925.16;10328897;28;20298;-31
2023/06/13 18:10:39;;;;;;;6.20;2.23;;;;;;;21.04;56.70;95928.59;10344339;28;20304;-31
2023/06/13 18:15:39;;;;;;;2.40;2.20;;;;;;;21.01;56.09;95928.66;10328077;28;20041;-32
2023/06/13 18:20:40;;;;;;;3.97;2.00;;;;;;;21.15;56.27;95941.91;10342424;28;20031;-30
2023/06/13 18:25:41;;;;;;;4.43;2.00;;;;;;;21.28;55.92;95943.31;10336658;28;20041;-32
2023/06/13 18:30:42;;;;;;;7.13;2.45;;;;;;;21.23;55.57;95945.09;10364079;28;20425;-31
2023/06/13 18:35:44;;;;;;;2.60;1.95;;;;;;;21.09;55.62;95947.16;10379715;28;20040;-31
2023/06/13 18:40:44;;;;;;;5.90;2.15;;;;;;;21.04;55.96;95943.84;10351647;28;20043;-31
2023/06/13 18:45:45;;;;;;;2.50;1.90;;;;;;;21.01;55.75;95945.63;10352962;28;20047;-32
2023/06/13 18:50:45;;;;;;;3.60;1.63;;;;;;;20.99;55.88;95948.19;10341925;28;20038;-31
2023/06/13 18:55:46;;;;;;;4.35;1.77;;;;;;;20.97;55.87;95957.59;10326905;28;20045;-31
2023/06/13 19:00:46;;;;;;;4.13;1.85;;;;;;;20.96;55.76;95962.72;10330033;28;20034;-32
2023/06/13 19:05:47;;;;;;;4.43;2.00;;;;;;;20.94;55.70;95978.00;10343243;28;20034;-30
2023/06/13 19:10:48;;;;;;;3.37;2.37;;;;;;;21.07;54.45;95973.50;10346551;28;20057;-30
2023/06/13 19:15:50;;;;;;;4.95;2.40;;;;;;;21.15;54.15;95977.53;10326627;28;20152;-30
2023/06/13 19:20:53;;;;;;;2.58;2.30;;;;;;;21.03;54.99;95997.31;10346283;28;20395;-31
2023/06/13 19:25:54;;;;;;;5.20;2.65;;;;;;;20.93;54.73;95996.69;10340008;28;20442;-31
2023/06/13 19:30:54;;;;;;;3.22;2.10;;;;;;;20.92;55.16;96012.84;10343081;28;20081;-32
2023/06/13 19:35:58;;;;;;;3.88;2.35;;;;;;;20.88;55.36;96026.47;10341078;28;20038;-32
2023/06/13 19:40:58;;;;;;;5.68;2.33;;;;;;;20.85;54.70;96023.97;10366584;28;20026;-31
2023/06/13 19:45:59;;;;;;;2.50;2.00;;;;;;;20.88;54.64;96041.75;10367212;28;20046;-31
2023/06/13 19:50:59;;;;;;;7.10;2.35;;;;;;;20.86;54.56;96056.22;10350248;28;20130;-31
2023/06/13 19:56:00;;;;;;;3.70;2.05;;;;;;;20.85;54.26;96064.69;10350010;28;20038;-32
2023/06/13 20:01:03;;;;;;;3.47;2.15;;;;;;;21.03;53.41;96066.91;10369804;28;20037;-31
2023/06/13 20:06:04;;;;;;;3.20;2.30;;;;;;;21.06;53.65;96076.19;10361216;28;20034;-31
2023/06/13 20:11:07;;;;;;;2.95;2.20;;;;;;;20.91;53.90;96079.88;10342525;28;20042;-31
2023/06/13 20:16:07;;;;;;;3.45;2.33;;;;;;;20.91;53.65;96090.06;10354753;28;20030;-32
2023/06/13 20:21:08;;;;;;;4.50;2.03;;;;;;;20.82;53.62;96092.72;10333297;28;20033;-31
2023/06/13 20:26:09;;;;;;;2.50;2.13;;;;;;;20.82;53.31;96100.34;10355347;28;20320;-32
2023/06/13 20:31:09;;;;;;;2.13;1.92;;;;;;;20.79;53.29;96095.31;10360283;28;20608;-31
2023/06/13 20:36:11;;;;;;;3.07;2.10;;;;;;;20.79;52.99;96095.31;10374990;28;20038;-31
2023/06/13 20:41:12;;;;;;;4.22;2.33;;;;;;;20.78;52.65;96106.38;10375492;28;20033;-32
2023/06/13 20:46:14;;;;;;;3.85;2.55;;;;;;;20.75;53.27;96109.00;10368119;28;20049;-31
2023/06/13 20:51:15;;;;;;;3.28;2.72;;;;;;;20.91;49.87;96107.88;10357313;28;20030;-31
2023/06/13 20:56:16;;;;;;;2.88;1.98;;;;;;;20.86;51.79;96117.28;10341717;28;20030;-31
2023/06/13 21:01:18;;;;;;;2.78;2.20;;;;;;;20.76;52.59;96109.81;10355144;28;20030;-32
2023/06/13 21:06:19;;;;;;;2.83;2.17;;;;;;;20.67;52.59;96115.91;10337565;28;20034;-32
2023/06/13 21:11:19;;;;;;;2.58;2.38;;;;;;;20.66;52.47;96115.94;10356351;28;20030;-32
2023/06/13 21:16:20;;;;;;;4.73;2.63;;;;;;;20.64;52.28;96121.03;10356043;28;20042;-32
2023/06/13 21:21:21;;;;;;;2.92;2.60;;;;;;;20.60;52.18;96119.44;10339776;28;20030;-32
2023/06/13 21:26:21;;;;;;;3.00;2.70;;;;;;;20.58;51.85;96120.31;10339068;28;20041;-31
2023/06/13 21:31:22;;;;;;;2.53;2.20;;;;;;;20.57;52.06;96116.94;10338371;28;20513;-32
2023/06/13 21:36:22;;;;;;;3.05;2.40;;;;;;;20.59;51.74;96111.81;10338464;28;20030;-32
2023/06/13 21:41:22;;;;;;;4.97;2.90;;;;;;;20.76;50.21;96119.97;10344474;28;20460;-31
2023/06/13 21:46:23;;;;;;;3.22;2.92;;;;;;;20.76;50.32;96115.75;10341632;28;20034;-31
2023/06/13 21:51:23;;;;;;;2.72;2.47;;;;;;;20.65;51.23;96109.19;10343846;28;20038;-31
2023/06/13 21:56:24;;;;;;;6.47;3.20;;;;;;;20.61;51.55;96120.25;10340530;28;20096;-31
2023/06/13 22:01:25;;;;;;;4.13;2.63;;;;;;;20.58;51.13;96121.19;10330150;28;20029;-32
2023/06/13 22:06:27;;;;;;;3.13;2.42;;;;;;;20.56;51.11;96127.97;10345853;28;20034;-30
2023/06/13 22:11:29;;;;;;;3.65;2.72;;;;;;;20.54;51.45;96117.00;10329707;28;20507;-31
2023/06/13 22:16:30;;;;;;;2.80;2.55;;;;;;;20.52;51.36;96126.34;10329533;28;20068;-31
2023/06/13 22:21:31;;;;;;;3.10;2.70;;;;;;;20.51;50.94;96119.59;10345728;28;20505;-31
2023/06/13 22:26:31;;;;;;;2.90;2.60;;;;;;;20.50;50.47;96133.19;10317911;28;20030;-31
2023/06/13 22:31:32;;;;;;;3.50;2.90;;;;;;;20.66;49.90;96129.50;10351281;28;20033;-31
2023/06/13 22:36:33;;;;;;;3.30;2.63;;;;;;;20.70;49.46;96127.72;10345378;28;20022;-32
2023/06/13 22:41:33;;;;;;;2.87;2.27;;;;;;;20.57;50.29;96129.63;10328708;28;20026;-31
2023/06/13 22:46:34;;;;;;;3.30;2.73;;;;;;;20.52;50.61;96135.69;10344262;28;20030;-32
2023/06/13 22:51:59;;;;;;;3.35;2.70;;;;;;;20.49;50.65;96130.66;10341563;28;20490;-32
2023/06/13 22:56:59;;;;;;;3.00;2.70;;;;;;;20.48;50.12;96134.06;10349594;28;20142;-32
2023/06/13 23:02:02;;;;;;;3.50;2.67;;;;;;;20.43;50.30;96120.59;10343232;28;20386;-31
2023/06/13 23:07:03;;;;;;;3.08;2.72;;;;;;;20.42;50.19;96124.84;10352391;28;20046;-32
2023/06/13 23:12:04;;;;;;;2.95;2.65;;;;;;;20.34;49.90;96108.03;10330612;28;20034;-31
2023/06/13 23:17:04;;;;;;;3.67;3.03;;;;;;;20.42;49.97;96128.25;10334852;28;20479;-31
2023/06/13 23:22:06;;;;;;;2.97;2.73;;;;;;;20.57;48.67;96129.63;10341478;28;20097;-31